createdAt,value
2022-08-12T00:00:11.164Z,101615.01
2022-08-12T00:03:17.895Z,101614.94
2022-08-12T00:06:08.679Z,101618.83
2022-08-12T00:08:55.569Z,101618.04
2022-08-12T00:11:42.305Z,101618.40
2022-08-12T00:14:29.173Z,101620.29
2022-08-12T00:17:15.832Z,101624.32
2022-08-12T00:20:02.591Z,101627.44
2022-08-12T00:22:58.762Z,101627.52
2022-08-12T00:26:05.701Z,101622.50
2022-08-12T00:28:54.344Z,101620.77
2022-08-12T00:31:41.175Z,101622.16
2022-08-12T00:34:27.903Z,101620.47
2022-08-12T00:37:19.047Z,101618.55
2022-08-12T00:40:11.271Z,101620.70
2022-08-12T00:42:39.895Z,101622.17
2022-08-12T00:45:10.028Z,101621.98
2022-08-12T00:47:39.344Z,101616.11
2022-08-12T00:50:09.848Z,101621.50
2022-08-12T00:52:39.370Z,101625.82
2022-08-12T00:55:09.673Z,101627.38
2022-08-12T00:57:38.952Z,101626.92
2022-08-12T01:00:09.458Z,101628.08
2022-08-12T01:02:39.008Z,101631.38
2022-08-12T01:05:27.008Z,101633.14
2022-08-12T01:08:13.697Z,101631.95
2022-08-12T01:11:00.472Z,101627.12
2022-08-12T01:13:30.096Z,101630.91
2022-08-12T01:15:59.399Z,101631.14
2022-08-12T01:18:28.743Z,101630.56
2022-08-12T01:20:59.124Z,101626.39
2022-08-12T01:23:28.328Z,101625.38
2022-08-12T01:25:57.661Z,101627.73
2022-08-12T01:28:27.024Z,101623.81
2022-08-12T01:30:57.388Z,101618.55
2022-08-12T01:33:26.678Z,101622.20
2022-08-12T01:35:57.933Z,101621.09
2022-08-12T01:38:38.160Z,101620.19
2022-08-12T01:41:07.568Z,101620.64
2022-08-12T01:43:36.757Z,101620.91
2022-08-12T01:46:06.016Z,101620.94
2022-08-12T01:48:35.405Z,101623.52
2022-08-12T01:51:05.531Z,101625.46
2022-08-12T01:53:48.646Z,101625.22
2022-08-12T01:56:22.969Z,101623.84
2022-08-12T01:59:12.285Z,101622.75
2022-08-12T02:01:41.818Z,101619.41
2022-08-12T02:04:28.722Z,101618.91
2022-08-12T02:07:15.376Z,101622.27
2022-08-12T02:10:02.241Z,101623.67
2022-08-12T02:12:34.219Z,101623.84
2022-08-12T02:15:03.616Z,101625.09
2022-08-12T02:17:55.329Z,101622.73
2022-08-12T02:20:24.177Z,101621.61
2022-08-12T02:23:05.609Z,101625.48
2022-08-12T02:25:35.015Z,101627.64
2022-08-12T02:28:06.123Z,101629.84
2022-08-12T02:30:42.395Z,101627.63
2022-08-12T02:33:13.065Z,101626.75
2022-08-12T02:35:43.531Z,101627.05
2022-08-12T02:38:12.777Z,101635.52
2022-08-12T02:40:43.730Z,101635.70
2022-08-12T02:43:14.430Z,101636.94
2022-08-12T02:45:46.547Z,101631.08
2022-08-12T02:48:15.876Z,101632.04
2022-08-12T02:50:45.096Z,101632.69
2022-08-12T02:53:14.309Z,101630.95
2022-08-12T02:55:46.896Z,101628.33
2022-08-12T02:58:16.871Z,101624.82
2022-08-12T03:00:50.519Z,101620.27
2022-08-12T03:03:19.804Z,101618.04
2022-08-12T03:05:52.508Z,101616.52
2022-08-12T03:08:32.003Z,101617.61
2022-08-12T03:11:04.439Z,101619.50
2022-08-12T03:13:35.793Z,101621.28
2022-08-12T03:16:05.808Z,101621.79
2022-08-12T03:18:36.327Z,101617.73
2022-08-12T03:21:05.690Z,101615.87
2022-08-12T03:23:35.027Z,101615.48
2022-08-12T03:26:06.775Z,101615.87
2022-08-12T03:28:58.317Z,101608.42
2022-08-12T03:31:31.089Z,101610.10
2022-08-12T03:34:01.522Z,101606.84
2022-08-12T03:36:36.161Z,101603.46
2022-08-12T03:39:35.416Z,101602.59
2022-08-12T03:42:10.576Z,101596.77
2022-08-12T03:44:57.353Z,101602.67
2022-08-12T03:47:44.514Z,101602.60
2022-08-12T03:50:33.671Z,101601.36
2022-08-12T03:53:20.835Z,101600.08
2022-08-12T03:56:07.997Z,101605.92
2022-08-12T03:58:54.762Z,101604.80
2022-08-12T04:01:26.716Z,101603.23
2022-08-12T04:03:57.150Z,101603.24
2022-08-12T04:06:35.333Z,101597.94
2022-08-12T04:09:15.004Z,101594.62
2022-08-12T04:12:04.888Z,101599.67
2022-08-12T04:14:34.088Z,101604.73
2022-08-12T04:17:03.367Z,101606.35
2022-08-12T04:19:32.650Z,101607.20
2022-08-12T09:24:49.788Z,101560.58
2022-08-12T09:28:10.833Z,101550.55
2022-08-12T09:38:31.944Z,101538.25
2022-08-12T09:45:03.596Z,101534.42
2022-08-12T09:48:44.598Z,101532.91
2022-08-12T09:54:33.489Z,101527.41
2022-08-12T09:58:45.473Z,101520.98
2022-08-12T10:00:33.195Z,101525.65
2022-08-12T10:03:31.912Z,101519.11
2022-08-12T10:09:28.528Z,101513.46
2022-08-12T10:13:07.688Z,101513.76
2022-08-12T10:16:00.967Z,101512.54
2022-08-12T10:18:51.170Z,101506.81
2022-08-12T10:21:36.188Z,101500.13
2022-08-12T10:24:24.589Z,101492.38
2022-08-12T10:27:14.409Z,101493.63
2022-08-12T10:30:03.513Z,101491.63
2022-08-12T10:32:47.175Z,101493.73
2022-08-12T10:35:37.866Z,101481.95
2022-08-12T10:38:44.043Z,101491.14
2022-08-12T10:46:38.722Z,101484.46
2022-08-12T10:55:33.750Z,101467.88
2022-08-12T10:58:14.658Z,101480.21
2022-08-12T11:01:49.539Z,101482.16
2022-08-12T11:07:06.416Z,101476.30
2022-08-12T11:09:58.367Z,101476.22
2022-08-12T11:23:53.588Z,101466.90
2022-08-12T11:27:12.090Z,101462.61
2022-08-12T11:30:32.843Z,101465.27
2022-08-12T11:55:46.767Z,101430.88
2022-08-12T12:01:57.946Z,101438.92
2022-08-12T12:09:14.671Z,101412.96
2022-08-12T12:15:44.497Z,101419.73
2022-08-12T12:26:09.862Z,101415.30
2022-08-12T12:30:29.401Z,101407.48
2022-08-12T12:32:29.249Z,101404.94
2022-08-12T12:36:16.394Z,101409.81
2022-08-12T12:38:32.469Z,101404.83
2022-08-12T12:44:53.617Z,101393.96
2022-08-12T12:48:29.813Z,101390.48
2022-08-12T12:55:56.662Z,101393.77
2022-08-12T13:22:20.750Z,101382.83
2022-08-12T13:30:07.031Z,101378.94
2022-08-12T13:33:18.183Z,101381.39
2022-08-12T13:39:41.681Z,101371.88
2022-08-12T13:42:58.668Z,101372.55
2022-08-12T13:45:19.082Z,101375.71
2022-08-12T13:48:11.932Z,101367.96
2022-08-12T13:57:49.921Z,101367.96
2022-08-12T13:58:52.490Z,101369.40
2022-08-12T14:01:04.215Z,101361.91
2022-08-12T14:03:50.382Z,101357.98
2022-08-12T14:06:38.959Z,101353.52
2022-08-12T14:09:39.548Z,101352.30
2022-08-12T14:12:54.508Z,101354.20
2022-08-12T14:38:55.698Z,101348.92
2022-08-12T14:51:09.646Z,101342.00
2022-08-12T15:00:39.991Z,101347.99
2022-08-12T15:03:11.209Z,101347.05
2022-08-12T15:06:05.420Z,101348.15
2022-08-12T15:08:51.014Z,101347.60
2022-08-12T15:12:05.640Z,101348.66
2022-08-12T15:14:30.477Z,101341.73
2022-08-12T15:17:09.125Z,101344.34
2022-08-12T15:20:27.814Z,101337.64
2022-08-12T15:23:28.860Z,101333.32
2022-08-12T15:26:50.786Z,101334.05
2022-08-12T15:40:48.263Z,101337.14
2022-08-12T15:43:51.691Z,101337.30
2022-08-12T15:46:45.702Z,101331.18
2022-08-12T15:59:51.146Z,101323.17
2022-08-12T16:04:29.543Z,101322.04
2022-08-12T16:10:05.917Z,101317.00
2022-08-12T16:13:05.653Z,101308.79
2022-08-12T16:20:03.518Z,101310.36
2022-08-12T16:50:54.852Z,101300.00
2022-08-12T17:04:31.108Z,101293.91
2022-08-12T17:07:21.375Z,101291.86
2022-08-12T17:10:13.316Z,101290.17
2022-08-12T17:13:14.257Z,101287.88
2022-08-12T17:16:17.999Z,101291.63
2022-08-12T17:20:29.042Z,101279.73
2022-08-12T17:26:52.683Z,101268.52
2022-08-12T17:28:55.469Z,101271.59
2022-08-12T17:57:18.390Z,101300.08
2022-08-12T18:04:35.415Z,101297.23
2022-08-12T18:07:48.932Z,101291.42
2022-08-12T18:11:11.605Z,101288.80
2022-08-12T18:14:27.700Z,101286.69
2022-08-12T18:28:15.486Z,101295.29
2022-08-12T18:34:43.383Z,101303.48
2022-08-12T18:46:30.050Z,101296.41
2022-08-12T18:46:55.168Z,101303.58
2022-08-12T18:54:06.009Z,101309.34
2022-08-12T19:00:29.870Z,101305.59
2022-08-12T19:08:29.007Z,101305.22
2022-08-12T19:18:44.743Z,101306.11
2022-08-12T19:36:55.924Z,101307.04
2022-08-12T19:47:16.237Z,101318.42
2022-08-12T19:50:52.785Z,101313.98
2022-08-12T19:54:04.146Z,101309.83
2022-08-12T19:58:03.337Z,101312.77
2022-08-12T20:01:33.910Z,101312.36
2022-08-12T20:04:46.468Z,101307.98
2022-08-12T20:38:55.846Z,101305.11
2022-08-12T21:02:15.519Z,101324.23
2022-08-12T21:05:16.244Z,101318.48
2022-08-12T21:11:33.098Z,101311.00
2022-08-12T21:14:39.760Z,101309.38
2022-08-12T21:18:28.831Z,101307.00
2022-08-12T21:47:23.702Z,101325.67
